sensor_id;sensor_type;location;lat;lon;timestamp;temperature;humidity
48515;DHT22;34309;47.260;2.796;2023-02-04T00:00:36;22.60;18.80
48515;DHT22;34309;47.260;2.796;2023-02-04T00:03:09;22.60;18.90
48515;DHT22;34309;47.260;2.796;2023-02-04T00:05:43;22.50;18.80
48515;DHT22;34309;47.260;2.796;2023-02-04T00:08:17;22.50;19.00
48515;DHT22;34309;47.260;2.796;2023-02-04T00:10:51;22.50;19.10
48515;DHT22;34309;47.260;2.796;2023-02-04T00:13:26;22.50;19.20
48515;DHT22;34309;47.260;2.796;2023-02-04T00:16:00;22.50;19.20
48515;DHT22;34309;47.260;2.796;2023-02-04T00:18:33;22.60;19.20
48515;DHT22;34309;47.260;2.796;2023-02-04T00:21:07;22.60;19.10
48515;DHT22;34309;47.260;2.796;2023-02-04T00:23:41;22.70;19.10
48515;DHT22;34309;47.260;2.796;2023-02-04T00:26:14;22.70;19.10
48515;DHT22;34309;47.260;2.796;2023-02-04T00:28:50;22.70;19.10
48515;DHT22;34309;47.260;2.796;2023-02-04T00:31:24;22.80;19.00
48515;DHT22;34309;47.260;2.796;2023-02-04T00:33:57;22.80;19.20
48515;DHT22;34309;47.260;2.796;2023-02-04T00:36:31;22.90;19.00
48515;DHT22;34309;47.260;2.796;2023-02-04T00:39:05;23.00;19.00
48515;DHT22;34309;47.260;2.796;2023-02-04T00:41:38;23.00;18.90
48515;DHT22;34309;47.260;2.796;2023-02-04T00:44:17;23.00;18.90
48515;DHT22;34309;47.260;2.796;2023-02-04T00:46:50;23.10;18.80
48515;DHT22;34309;47.260;2.796;2023-02-04T00:49:19;23.10;18.80
48515;DHT22;34309;47.260;2.796;2023-02-04T00:51:53;23.10;18.80
48515;DHT22;34309;47.260;2.796;2023-02-04T00:54:27;23.10;18.80
48515;DHT22;34309;47.260;2.796;2023-02-04T00:57:01;23.10;18.70
48515;DHT22;34309;47.260;2.796;2023-02-04T00:59:36;23.10;18.80
48515;DHT22;34309;47.260;2.796;2023-02-04T01:02:09;23.10;18.80
48515;DHT22;34309;47.260;2.796;2023-02-04T01:04:43;23.10;18.70
48515;DHT22;34309;47.260;2.796;2023-02-04T01:07:17;23.00;18.60
48515;DHT22;34309;47.260;2.796;2023-02-04T01:09:51;23.00;18.50
48515;DHT22;34309;47.260;2.796;2023-02-04T01:12:24;23.00;18.60
48515;DHT22;34309;47.260;2.796;2023-02-04T01:15:01;23.00;18.60
48515;DHT22;34309;47.260;2.796;2023-02-04T01:17:35;23.00;18.80
48515;DHT22;34309;47.260;2.796;2023-02-04T01:20:09;22.90;18.70
48515;DHT22;34309;47.260;2.796;2023-02-04T01:22:43;22.90;18.70
48515;DHT22;34309;47.260;2.796;2023-02-04T01:25:17;22.90;18.60
48515;DHT22;34309;47.260;2.796;2023-02-04T01:27:51;22.90;18.70
48515;DHT22;34309;47.260;2.796;2023-02-04T01:30:26;22.80;18.60
48515;DHT22;34309;47.260;2.796;2023-02-04T01:33:00;22.80;18.60
48515;DHT22;34309;47.260;2.796;2023-02-04T01:35:33;22.80;18.80
48515;DHT22;34309;47.260;2.796;2023-02-04T01:38:07;22.70;18.70
48515;DHT22;34309;47.260;2.796;2023-02-04T01:40:42;22.70;18.70
48515;DHT22;34309;47.260;2.796;2023-02-04T01:43:16;22.70;18.80
48515;DHT22;34309;47.260;2.796;2023-02-04T01:45:52;22.70;19.00
48515;DHT22;34309;47.260;2.796;2023-02-04T01:48:26;22.60;18.80
48515;DHT22;34309;47.260;2.796;2023-02-04T01:51:03;22.60;19.00
48515;DHT22;34309;47.260;2.796;2023-02-04T01:53:38;22.60;19.00
48515;DHT22;34309;47.260;2.796;2023-02-04T01:56:15;22.50;19.10
48515;DHT22;34309;47.260;2.796;2023-02-04T01:58:50;22.50;19.00
48515;DHT22;34309;47.260;2.796;2023-02-04T02:01:36;22.50;19.10
48515;DHT22;34309;47.260;2.796;2023-02-04T02:04:14;22.50;19.10
48515;DHT22;34309;47.260;2.796;2023-02-04T02:06:52;22.40;19.00
48515;DHT22;34309;47.260;2.796;2023-02-04T02:09:28;22.40;19.10
48515;DHT22;34309;47.260;2.796;2023-02-04T02:12:06;22.40;19.10
48515;DHT22;34309;47.260;2.796;2023-02-04T02:14:40;22.30;19.20
48515;DHT22;34309;47.260;2.796;2023-02-04T02:17:15;22.30;19.20
48515;DHT22;34309;47.260;2.796;2023-02-04T02:19:49;22.40;19.40
48515;DHT22;34309;47.260;2.796;2023-02-04T02:22:28;22.30;19.20
48515;DHT22;34309;47.260;2.796;2023-02-04T02:25:09;22.40;19.30
48515;DHT22;34309;47.260;2.796;2023-02-04T02:27:43;22.50;19.30
48515;DHT22;34309;47.260;2.796;2023-02-04T02:30:17;22.50;19.30
48515;DHT22;34309;47.260;2.796;2023-02-04T02:32:52;22.60;19.30
48515;DHT22;34309;47.260;2.796;2023-02-04T02:35:26;22.60;19.20
48515;DHT22;34309;47.260;2.796;2023-02-04T02:37:59;22.60;19.20
48515;DHT22;34309;47.260;2.796;2023-02-04T02:40:35;22.70;19.10
48515;DHT22;34309;47.260;2.796;2023-02-04T02:43:09;22.70;19.10
48515;DHT22;34309;47.260;2.796;2023-02-04T02:45:47;22.80;19.20
48515;DHT22;34309;47.260;2.796;2023-02-04T02:48:21;22.80;19.10
48515;DHT22;34309;47.260;2.796;2023-02-04T02:50:55;22.80;19.00
48515;DHT22;34309;47.260;2.796;2023-02-04T02:53:30;22.90;19.00
48515;DHT22;34309;47.260;2.796;2023-02-04T02:56:05;22.90;19.00
48515;DHT22;34309;47.260;2.796;2023-02-04T02:58:39;22.90;18.90
48515;DHT22;34309;47.260;2.796;2023-02-04T03:01:12;22.90;18.90
48515;DHT22;34309;47.260;2.796;2023-02-04T03:03:48;22.90;18.90
48515;DHT22;34309;47.260;2.796;2023-02-04T03:06:26;22.90;18.90
48515;DHT22;34309;47.260;2.796;2023-02-04T03:08:59;22.90;18.90
48515;DHT22;34309;47.260;2.796;2023-02-04T03:11:35;22.90;18.90
48515;DHT22;34309;47.260;2.796;2023-02-04T03:14:09;22.90;18.80
48515;DHT22;34309;47.260;2.796;2023-02-04T03:16:43;22.80;18.80
48515;DHT22;34309;47.260;2.796;2023-02-04T03:19:17;22.90;18.80
48515;DHT22;34309;47.260;2.796;2023-02-04T03:21:51;22.80;18.70
48515;DHT22;34309;47.260;2.796;2023-02-04T03:24:26;22.80;18.80
48515;DHT22;34309;47.260;2.796;2023-02-04T03:27:01;22.80;18.80
48515;DHT22;34309;47.260;2.796;2023-02-04T03:29:41;22.70;18.80
48515;DHT22;34309;47.260;2.796;2023-02-04T03:32:15;22.70;18.80
48515;DHT22;34309;47.260;2.796;2023-02-04T03:34:49;22.70;18.90
48515;DHT22;34309;47.260;2.796;2023-02-04T03:37:23;22.70;19.00
48515;DHT22;34309;47.260;2.796;2023-02-04T03:39:57;22.60;18.90
48515;DHT22;34309;47.260;2.796;2023-02-04T03:42:32;22.60;18.90
48515;DHT22;34309;47.260;2.796;2023-02-04T03:45:06;22.60;19.00
48515;DHT22;34309;47.260;2.796;2023-02-04T03:47:40;22.60;18.90
48515;DHT22;34309;47.260;2.796;2023-02-04T03:50:14;22.50;18.90
48515;DHT22;34309;47.260;2.796;2023-02-04T03:52:48;22.50;18.90
48515;DHT22;34309;47.260;2.796;2023-02-04T03:55:23;22.50;19.00
48515;DHT22;34309;47.260;2.796;2023-02-04T03:57:59;22.50;19.00
48515;DHT22;34309;47.260;2.796;2023-02-04T04:00:33;22.40;18.90
48515;DHT22;34309;47.260;2.796;2023-02-04T04:03:07;22.40;18.90
48515;DHT22;34309;47.260;2.796;2023-02-04T04:05:40;22.40;19.10
48515;DHT22;34309;47.260;2.796;2023-02-04T04:08:14;22.30;19.10
48515;DHT22;34309;47.260;2.796;2023-02-04T04:10:48;22.30;19.20
48515;DHT22;34309;47.260;2.796;2023-02-04T04:13:23;22.30;19.10
48515;DHT22;34309;47.260;2.796;2023-02-04T04:15:57;22.30;19.30
48515;DHT22;34309;47.260;2.796;2023-02-04T04:18:31;22.20;19.20
48515;DHT22;34309;47.260;2.796;2023-02-04T04:21:04;22.20;19.20
48515;DHT22;34309;47.260;2.796;2023-02-04T04:23:38;22.20;19.30
48515;DHT22;34309;47.260;2.796;2023-02-04T04:26:12;22.20;19.50
48515;DHT22;34309;47.260;2.796;2023-02-04T04:28:47;22.20;19.60
48515;DHT22;34309;47.260;2.796;2023-02-04T04:31:21;22.20;20.00
48515;DHT22;34309;47.260;2.796;2023-02-04T04:33:55;22.20;19.50
48515;DHT22;34309;47.260;2.796;2023-02-04T04:36:28;22.30;19.40
48515;DHT22;34309;47.260;2.796;2023-02-04T04:39:02;22.40;19.30
48515;DHT22;34309;47.260;2.796;2023-02-04T04:41:36;22.40;19.50
48515;DHT22;34309;47.260;2.796;2023-02-04T04:44:11;22.50;19.30
48515;DHT22;34309;47.260;2.796;2023-02-04T04:46:45;22.50;19.20
48515;DHT22;34309;47.260;2.796;2023-02-04T04:49:19;22.60;19.30
48515;DHT22;34309;47.260;2.796;2023-02-04T04:51:52;22.60;19.20
48515;DHT22;34309;47.260;2.796;2023-02-04T04:54:26;22.60;19.20
48515;DHT22;34309;47.260;2.796;2023-02-04T04:56:59;22.60;19.20
48515;DHT22;34309;47.260;2.796;2023-02-04T04:59:35;22.70;19.10
48515;DHT22;34309;47.260;2.796;2023-02-04T05:02:09;22.70;19.10
48515;DHT22;34309;47.260;2.796;2023-02-04T05:04:38;22.70;19.10
48515;DHT22;34309;47.260;2.796;2023-02-04T05:07:12;22.70;19.10
48515;DHT22;34309;47.260;2.796;2023-02-04T05:09:45;22.70;19.00
48515;DHT22;34309;47.260;2.796;2023-02-04T05:12:19;22.70;19.00
48515;DHT22;34309;47.260;2.796;2023-02-04T05:14:54;22.70;18.90
48515;DHT22;34309;47.260;2.796;2023-02-04T05:17:28;22.80;19.10
48515;DHT22;34309;47.260;2.796;2023-02-04T05:20:02;22.70;19.00
48515;DHT22;34309;47.260;2.796;2023-02-04T05:22:35;22.70;18.90
48515;DHT22;34309;47.260;2.796;2023-02-04T05:25:09;22.70;18.90
48515;DHT22;34309;47.260;2.796;2023-02-04T05:27:44;22.70;19.00
48515;DHT22;34309;47.260;2.796;2023-02-04T05:30:19;22.70;19.00
48515;DHT22;34309;47.260;2.796;2023-02-04T05:32:53;22.60;19.00
48515;DHT22;34309;47.260;2.796;2023-02-04T05:35:27;22.60;19.00
48515;DHT22;34309;47.260;2.796;2023-02-04T05:38:00;22.60;19.00
48515;DHT22;34309;47.260;2.796;2023-02-04T05:40:34;22.60;19.10
48515;DHT22;34309;47.260;2.796;2023-02-04T05:43:08;22.60;19.20
48515;DHT22;34309;47.260;2.796;2023-02-04T05:45:43;22.60;19.10
48515;DHT22;34309;47.260;2.796;2023-02-04T05:48:17;22.50;19.00
48515;DHT22;34309;47.260;2.796;2023-02-04T05:50:45;22.50;19.10
48515;DHT22;34309;47.260;2.796;2023-02-04T05:53:19;22.50;19.20
48515;DHT22;34309;47.260;2.796;2023-02-04T05:55:53;22.40;19.10
48515;DHT22;34309;47.260;2.796;2023-02-04T05:58:26;22.40;19.20
48515;DHT22;34309;47.260;2.796;2023-02-04T06:01:05;22.40;19.20
48515;DHT22;34309;47.260;2.796;2023-02-04T06:03:39;22.30;19.20
48515;DHT22;34309;47.260;2.796;2023-02-04T06:06:13;22.30;19.20
48515;DHT22;34309;47.260;2.796;2023-02-04T06:08:47;22.30;19.40
48515;DHT22;34309;47.260;2.796;2023-02-04T06:11:21;22.30;19.20
48515;DHT22;34309;47.260;2.796;2023-02-04T06:13:54;22.20;19.20
48515;DHT22;34309;47.260;2.796;2023-02-04T06:16:30;22.20;19.40
48515;DHT22;34309;47.260;2.796;2023-02-04T06:19:03;22.20;19.50
48515;DHT22;34309;47.260;2.796;2023-02-04T06:21:37;22.10;19.40
48515;DHT22;34309;47.260;2.796;2023-02-04T06:24:11;22.10;19.50
48515;DHT22;34309;47.260;2.796;2023-02-04T06:26:45;22.10;19.60
48515;DHT22;34309;47.260;2.796;2023-02-04T06:29:18;22.10;19.60
48515;DHT22;34309;47.260;2.796;2023-02-04T06:31:53;22.10;19.60
48515;DHT22;34309;47.260;2.796;2023-02-04T06:34:27;22.10;19.60
48515;DHT22;34309;47.260;2.796;2023-02-04T06:37:01;22.10;19.50
48515;DHT22;34309;47.260;2.796;2023-02-04T06:39:35;22.20;19.60
48515;DHT22;34309;47.260;2.796;2023-02-04T06:42:08;22.30;19.50
48515;DHT22;34309;47.260;2.796;2023-02-04T06:44:42;22.40;19.40
48515;DHT22;34309;47.260;2.796;2023-02-04T06:47:17;22.40;19.30
48515;DHT22;34309;47.260;2.796;2023-02-04T06:49:51;22.40;19.40
48515;DHT22;34309;47.260;2.796;2023-02-04T06:52:25;22.50;19.40
48515;DHT22;34309;47.260;2.796;2023-02-04T06:54:59;22.50;19.40
48515;DHT22;34309;47.260;2.796;2023-02-04T06:57:33;22.60;19.30
48515;DHT22;34309;47.260;2.796;2023-02-04T07:00:08;22.60;19.30
48515;DHT22;34309;47.260;2.796;2023-02-04T07:02:43;22.60;19.20
48515;DHT22;34309;47.260;2.796;2023-02-04T07:05:17;22.60;19.20
48515;DHT22;34309;47.260;2.796;2023-02-04T07:07:51;22.60;19.20
48515;DHT22;34309;47.260;2.796;2023-02-04T07:10:20;22.60;19.20
48515;DHT22;34309;47.260;2.796;2023-02-04T07:12:53;22.60;19.20
48515;DHT22;34309;47.260;2.796;2023-02-04T07:15:27;22.60;19.10
48515;DHT22;34309;47.260;2.796;2023-02-04T07:18:03;22.70;19.20
48515;DHT22;34309;47.260;2.796;2023-02-04T07:20:37;22.60;19.10
48515;DHT22;34309;47.260;2.796;2023-02-04T07:23:10;22.60;19.20
48515;DHT22;34309;47.260;2.796;2023-02-04T07:25:44;22.60;19.20
48515;DHT22;34309;47.260;2.796;2023-02-04T07:28:18;22.50;19.20
48515;DHT22;34309;47.260;2.796;2023-02-04T07:30:52;22.50;19.20
48515;DHT22;34309;47.260;2.796;2023-02-04T07:33:28;22.50;19.20
48515;DHT22;34309;47.260;2.796;2023-02-04T07:36:01;22.50;19.20
48515;DHT22;34309;47.260;2.796;2023-02-04T07:38:35;22.50;19.30
48515;DHT22;34309;47.260;2.796;2023-02-04T07:41:09;22.50;19.20
48515;DHT22;34309;47.260;2.796;2023-02-04T07:43:42;22.60;19.30
48515;DHT22;34309;47.260;2.796;2023-02-04T07:46:16;22.60;19.20
48515;DHT22;34309;47.260;2.796;2023-02-04T07:48:52;22.60;19.20
48515;DHT22;34309;47.260;2.796;2023-02-04T07:51:27;22.70;19.10
48515;DHT22;34309;47.260;2.796;2023-02-04T07:54:01;22.80;19.10
48515;DHT22;34309;47.260;2.796;2023-02-04T07:56:34;22.80;19.00
48515;DHT22;34309;47.260;2.796;2023-02-04T07:59:03;22.90;19.00
48515;DHT22;34309;47.260;2.796;2023-02-04T08:01:37;22.90;19.30
48515;DHT22;34309;47.260;2.796;2023-02-04T08:04:12;22.90;18.90
48515;DHT22;34309;47.260;2.796;2023-02-04T08:06:47;22.90;18.90
48515;DHT22;34309;47.260;2.796;2023-02-04T08:09:21;22.90;19.00
48515;DHT22;34309;47.260;2.796;2023-02-04T08:11:55;22.90;18.90
48515;DHT22;34309;47.260;2.796;2023-02-04T08:14:29;22.90;19.00
48515;DHT22;34309;47.260;2.796;2023-02-04T08:17:02;22.90;19.00
48515;DHT22;34309;47.260;2.796;2023-02-04T08:19:38;22.80;19.00
48515;DHT22;34309;47.260;2.796;2023-02-04T08:22:12;22.80;19.10
48515;DHT22;34309;47.260;2.796;2023-02-04T08:24:45;22.80;19.00
48515;DHT22;34309;47.260;2.796;2023-02-04T08:27:19;22.80;19.00
48515;DHT22;34309;47.260;2.796;2023-02-04T08:29:53;22.80;19.00
48515;DHT22;34309;47.260;2.796;2023-02-04T08:32:28;22.80;19.10
48515;DHT22;34309;47.260;2.796;2023-02-04T08:35:04;22.80;19.20
48515;DHT22;34309;47.260;2.796;2023-02-04T08:37:38;22.70;19.10
48515;DHT22;34309;47.260;2.796;2023-02-04T08:40:12;22.70;19.10
48515;DHT22;34309;47.260;2.796;2023-02-04T08:42:46;22.60;19.20
48515;DHT22;34309;47.260;2.796;2023-02-04T08:45:19;22.60;19.20
48515;DHT22;34309;47.260;2.796;2023-02-04T08:47:53;22.60;19.20
48515;DHT22;34309;47.260;2.796;2023-02-04T08:50:28;22.60;19.40
48515;DHT22;34309;47.260;2.796;2023-02-04T08:53:02;22.50;19.20
48515;DHT22;34309;47.260;2.796;2023-02-04T08:55:36;22.50;19.40
48515;DHT22;34309;47.260;2.796;2023-02-04T08:58:09;22.50;19.50
48515;DHT22;34309;47.260;2.796;2023-02-04T09:00:43;22.40;19.50
48515;DHT22;34309;47.260;2.796;2023-02-04T09:03:17;22.40;19.50
48515;DHT22;34309;47.260;2.796;2023-02-04T09:05:52;22.40;19.60
48515;DHT22;34309;47.260;2.796;2023-02-04T09:08:26;22.30;19.60
48515;DHT22;34309;47.260;2.796;2023-02-04T09:11:00;22.30;19.60
48515;DHT22;34309;47.260;2.796;2023-02-04T09:13:33;22.30;19.90
48515;DHT22;34309;47.260;2.796;2023-02-04T09:16:07;22.30;20.10
48515;DHT22;34309;47.260;2.796;2023-02-04T09:18:41;22.20;20.00
48515;DHT22;34309;47.260;2.796;2023-02-04T09:21:17;22.30;20.20
48515;DHT22;34309;47.260;2.796;2023-02-04T09:23:50;22.20;20.20
48515;DHT22;34309;47.260;2.796;2023-02-04T09:26:20;22.20;20.20
48515;DHT22;34309;47.260;2.796;2023-02-04T09:28:53;22.10;20.20
48515;DHT22;34309;47.260;2.796;2023-02-04T09:31:27;22.10;20.30
48515;DHT22;34309;47.260;2.796;2023-02-04T09:34:01;22.10;20.40
48515;DHT22;34309;47.260;2.796;2023-02-04T09:36:36;22.10;20.40
48515;DHT22;34309;47.260;2.796;2023-02-04T09:39:10;22.00;20.40
48515;DHT22;34309;47.260;2.796;2023-02-04T09:41:44;22.00;20.40
48515;DHT22;34309;47.260;2.796;2023-02-04T09:44:19;22.00;20.50
48515;DHT22;34309;47.260;2.796;2023-02-04T09:46:57;22.00;20.60
48515;DHT22;34309;47.260;2.796;2023-02-04T09:49:31;21.90;20.60
48515;DHT22;34309;47.260;2.796;2023-02-04T09:52:09;21.90;20.60
48515;DHT22;34309;47.260;2.796;2023-02-04T09:54:44;21.90;20.60
48515;DHT22;34309;47.260;2.796;2023-02-04T09:57:19;21.90;21.30
48515;DHT22;34309;47.260;2.796;2023-02-04T09:59:52;21.90;20.80
48515;DHT22;34309;47.260;2.796;2023-02-04T10:02:26;21.90;20.70
48515;DHT22;34309;47.260;2.796;2023-02-04T10:05:00;21.80;20.70
48515;DHT22;34309;47.260;2.796;2023-02-04T10:07:36;21.80;20.80
48515;DHT22;34309;47.260;2.796;2023-02-04T10:10:14;21.80;20.90
48515;DHT22;34309;47.260;2.796;2023-02-04T10:12:51;21.70;20.90
48515;DHT22;34309;47.260;2.796;2023-02-04T10:15:26;21.70;21.00
48515;DHT22;34309;47.260;2.796;2023-02-04T10:18:03;21.70;21.00
48515;DHT22;34309;47.260;2.796;2023-02-04T10:20:38;21.70;21.20
48515;DHT22;34309;47.260;2.796;2023-02-04T10:23:13;21.70;21.20
48515;DHT22;34309;47.260;2.796;2023-02-04T10:25:47;21.60;21.10
48515;DHT22;34309;47.260;2.796;2023-02-04T10:28:20;21.60;21.20
48515;DHT22;34309;47.260;2.796;2023-02-04T10:31:04;21.60;21.30
48515;DHT22;34309;47.260;2.796;2023-02-04T10:33:39;21.60;21.40
48515;DHT22;34309;47.260;2.796;2023-02-04T10:36:12;21.60;21.40
48515;DHT22;34309;47.260;2.796;2023-02-04T10:38:58;21.50;21.40
48515;DHT22;34309;47.260;2.796;2023-02-04T10:41:32;21.50;21.40
48515;DHT22;34309;47.260;2.796;2023-02-04T10:44:14;21.50;21.40
48515;DHT22;34309;47.260;2.796;2023-02-04T10:46:48;21.50;21.50
48515;DHT22;34309;47.260;2.796;2023-02-04T10:49:23;21.50;21.60
48515;DHT22;34309;47.260;2.796;2023-02-04T10:51:57;21.50;21.60
48515;DHT22;34309;47.260;2.796;2023-02-04T10:54:36;21.50;21.60
48515;DHT22;34309;47.260;2.796;2023-02-04T10:57:16;21.40;21.60
48515;DHT22;34309;47.260;2.796;2023-02-04T10:59:53;21.40;21.40
48515;DHT22;34309;47.260;2.796;2023-02-04T11:02:40;21.40;21.60
48515;DHT22;34309;47.260;2.796;2023-02-04T11:05:19;21.40;21.50
48515;DHT22;34309;47.260;2.796;2023-02-04T11:07:53;21.40;21.80
48515;DHT22;34309;47.260;2.796;2023-02-04T11:10:30;21.40;21.60
48515;DHT22;34309;47.260;2.796;2023-02-04T11:13:06;21.30;21.80
48515;DHT22;34309;47.260;2.796;2023-02-04T11:15:42;21.30;21.80
48515;DHT22;34309;47.260;2.796;2023-02-04T11:18:27;21.30;21.80
48515;DHT22;34309;47.260;2.796;2023-02-04T11:21:13;21.30;21.90
48515;DHT22;34309;47.260;2.796;2023-02-04T11:23:48;21.30;21.80
48515;DHT22;34309;47.260;2.796;2023-02-04T11:26:33;21.30;21.90
48515;DHT22;34309;47.260;2.796;2023-02-04T11:29:26;21.30;21.90
48515;DHT22;34309;47.260;2.796;2023-02-04T11:32:11;21.20;21.90
48515;DHT22;34309;47.260;2.796;2023-02-04T11:35:24;21.20;21.90
48515;DHT22;34309;47.260;2.796;2023-02-04T11:37:58;21.20;22.00
48515;DHT22;34309;47.260;2.796;2023-02-04T11:40:39;21.20;22.10
48515;DHT22;34309;47.260;2.796;2023-02-04T11:43:15;21.20;22.10
48515;DHT22;34309;47.260;2.796;2023-02-04T11:46:01;21.20;22.10
48515;DHT22;34309;47.260;2.796;2023-02-04T11:48:36;21.10;22.10
48515;DHT22;34309;47.260;2.796;2023-02-04T11:51:11;21.10;22.10
48515;DHT22;34309;47.260;2.796;2023-02-04T11:53:50;21.10;22.00
48515;DHT22;34309;47.260;2.796;2023-02-04T11:56:28;21.10;22.10
48515;DHT22;34309;47.260;2.796;2023-02-04T11:59:03;21.10;22.10
48515;DHT22;34309;47.260;2.796;2023-02-04T12:01:37;21.10;22.00
48515;DHT22;34309;47.260;2.796;2023-02-04T12:04:21;21.10;22.20
48515;DHT22;34309;47.260;2.796;2023-02-04T12:06:59;21.00;22.10
48515;DHT22;34309;47.260;2.796;2023-02-04T12:09:34;21.00;22.10
48515;DHT22;34309;47.260;2.796;2023-02-04T12:12:08;21.00;22.10
48515;DHT22;34309;47.260;2.796;2023-02-04T12:14:43;21.00;22.10
48515;DHT22;34309;47.260;2.796;2023-02-04T12:17:18;21.00;22.10
48515;DHT22;34309;47.260;2.796;2023-02-04T12:19:52;21.00;22.20
48515;DHT22;34309;47.260;2.796;2023-02-04T12:22:25;21.00;22.20
48515;DHT22;34309;47.260;2.796;2023-02-04T12:24:59;21.00;22.20
48515;DHT22;34309;47.260;2.796;2023-02-04T12:27:33;21.00;22.30
48515;DHT22;34309;47.260;2.796;2023-02-04T12:30:10;21.00;22.20
48515;DHT22;34309;47.260;2.796;2023-02-04T12:32:44;20.90;22.20
48515;DHT22;34309;47.260;2.796;2023-02-04T12:35:18;20.90;22.30
48515;DHT22;34309;47.260;2.796;2023-02-04T12:37:52;20.90;22.20
48515;DHT22;34309;47.260;2.796;2023-02-04T12:40:25;20.90;22.20
48515;DHT22;34309;47.260;2.796;2023-02-04T12:42:59;20.90;22.20
48515;DHT22;34309;47.260;2.796;2023-02-04T12:45:34;20.80;22.10
48515;DHT22;34309;47.260;2.796;2023-02-04T12:48:08;20.90;22.20
48515;DHT22;34309;47.260;2.796;2023-02-04T12:50:42;20.90;22.20
48515;DHT22;34309;47.260;2.796;2023-02-04T12:53:16;20.90;22.30
48515;DHT22;34309;47.260;2.796;2023-02-04T12:55:50;20.90;22.20
48515;DHT22;34309;47.260;2.796;2023-02-04T12:58:23;20.90;22.90
48515;DHT22;34309;47.260;2.796;2023-02-04T13:00:59;20.80;22.20
48515;DHT22;34309;47.260;2.796;2023-02-04T13:03:33;20.90;22.30
48515;DHT22;34309;47.260;2.796;2023-02-04T13:06:06;20.80;22.30
48515;DHT22;34309;47.260;2.796;2023-02-04T13:08:40;20.80;22.30
48515;DHT22;34309;47.260;2.796;2023-02-04T13:11:14;20.80;22.30
48515;DHT22;34309;47.260;2.796;2023-02-04T13:13:47;20.80;22.30
48515;DHT22;34309;47.260;2.796;2023-02-04T13:16:23;20.80;22.30
48515;DHT22;34309;47.260;2.796;2023-02-04T13:18:57;20.80;22.30
48515;DHT22;34309;47.260;2.796;2023-02-04T13:21:32;20.80;22.30
48515;DHT22;34309;47.260;2.796;2023-02-04T13:24:06;20.70;22.20
48515;DHT22;34309;47.260;2.796;2023-02-04T13:26:41;20.80;22.30
48515;DHT22;34309;47.260;2.796;2023-02-04T13:29:15;20.70;22.20
48515;DHT22;34309;47.260;2.796;2023-02-04T13:31:50;20.70;22.30
48515;DHT22;34309;47.260;2.796;2023-02-04T13:34:24;20.70;22.30
48515;DHT22;34309;47.260;2.796;2023-02-04T13:36:58;20.70;22.40
48515;DHT22;34309;47.260;2.796;2023-02-04T13:39:32;20.70;22.40
48515;DHT22;34309;47.260;2.796;2023-02-04T13:42:06;20.70;22.20
48515;DHT22;34309;47.260;2.796;2023-02-04T13:44:39;20.70;22.30
48515;DHT22;34309;47.260;2.796;2023-02-04T13:47:14;20.70;22.40
48515;DHT22;34309;47.260;2.796;2023-02-04T13:49:48;20.70;22.40
48515;DHT22;34309;47.260;2.796;2023-02-04T13:52:21;20.70;22.60
48515;DHT22;34309;47.260;2.796;2023-02-04T13:54:55;20.70;22.70
48515;DHT22;34309;47.260;2.796;2023-02-04T13:57:29;20.70;22.90
48515;DHT22;34309;47.260;2.796;2023-02-04T14:00:04;20.70;22.90
48515;DHT22;34309;47.260;2.796;2023-02-04T14:02:40;20.70;23.10
48515;DHT22;34309;47.260;2.796;2023-02-04T14:05:09;20.70;23.20
48515;DHT22;34309;47.260;2.796;2023-02-04T14:07:43;20.70;23.30
48515;DHT22;34309;47.260;2.796;2023-02-04T14:10:17;20.70;23.50
48515;DHT22;34309;47.260;2.796;2023-02-04T14:12:54;20.70;23.40
48515;DHT22;34309;47.260;2.796;2023-02-04T14:15:27;20.70;23.50
48515;DHT22;34309;47.260;2.796;2023-02-04T14:17:57;20.80;23.70
48515;DHT22;34309;47.260;2.796;2023-02-04T14:20:31;20.70;23.70
48515;DHT22;34309;47.260;2.796;2023-02-04T14:23:05;20.70;23.70
48515;DHT22;34309;47.260;2.796;2023-02-04T14:25:39;20.80;23.80
48515;DHT22;34309;47.260;2.796;2023-02-04T14:28:13;20.80;23.80
48515;DHT22;34309;47.260;2.796;2023-02-04T14:30:46;20.80;23.80
48515;DHT22;34309;47.260;2.796;2023-02-04T14:33:22;20.80;23.90
48515;DHT22;34309;47.260;2.796;2023-02-04T14:35:55;20.80;23.90
48515;DHT22;34309;47.260;2.796;2023-02-04T14:38:29;20.80;23.90
48515;DHT22;34309;47.260;2.796;2023-02-04T14:41:04;20.80;23.90
48515;DHT22;34309;47.260;2.796;2023-02-04T14:43:38;20.90;24.00
48515;DHT22;34309;47.260;2.796;2023-02-04T14:46:12;20.80;24.00
48515;DHT22;34309;47.260;2.796;2023-02-04T14:48:47;20.80;24.00
48515;DHT22;34309;47.260;2.796;2023-02-04T14:51:23;20.80;24.00
48515;DHT22;34309;47.260;2.796;2023-02-04T14:53:56;20.90;24.10
48515;DHT22;34309;47.260;2.796;2023-02-04T14:56:30;20.90;24.10
48515;DHT22;34309;47.260;2.796;2023-02-04T14:59:04;20.90;24.10
48515;DHT22;34309;47.260;2.796;2023-02-04T15:01:37;20.90;24.10
48515;DHT22;34309;47.260;2.796;2023-02-04T15:04:14;20.90;24.10
48515;DHT22;34309;47.260;2.796;2023-02-04T15:06:49;20.90;24.10
48515;DHT22;34309;47.260;2.796;2023-02-04T15:09:25;20.90;24.10
48515;DHT22;34309;47.260;2.796;2023-02-04T15:11:58;20.90;24.10
48515;DHT22;34309;47.260;2.796;2023-02-04T15:14:32;21.00;24.20
48515;DHT22;34309;47.260;2.796;2023-02-04T15:17:06;21.00;24.20
48515;DHT22;34309;47.260;2.796;2023-02-04T15:19:41;21.00;24.10
48515;DHT22;34309;47.260;2.796;2023-02-04T15:22:15;21.00;24.10
48515;DHT22;34309;47.260;2.796;2023-02-04T15:24:49;21.00;24.10
48515;DHT22;34309;47.260;2.796;2023-02-04T15:27:23;21.00;24.10
48515;DHT22;34309;47.260;2.796;2023-02-04T15:29:57;21.00;24.10
48515;DHT22;34309;47.260;2.796;2023-02-04T15:32:31;21.00;24.10
48515;DHT22;34309;47.260;2.796;2023-02-04T15:35:06;21.00;23.90
48515;DHT22;34309;47.260;2.796;2023-02-04T15:37:40;21.00;24.00
48515;DHT22;34309;47.260;2.796;2023-02-04T15:40:14;21.00;24.00
48515;DHT22;34309;47.260;2.796;2023-02-04T15:42:48;21.00;23.80
48515;DHT22;34309;47.260;2.796;2023-02-04T15:45:24;21.00;23.80
48515;DHT22;34309;47.260;2.796;2023-02-04T15:47:53;21.00;23.80
48515;DHT22;34309;47.260;2.796;2023-02-04T15:50:28;21.00;23.90
48515;DHT22;34309;47.260;2.796;2023-02-04T15:53:02;21.00;23.80
48515;DHT22;34309;47.260;2.796;2023-02-04T15:55:36;20.90;23.80
48515;DHT22;34309;47.260;2.796;2023-02-04T15:58:10;21.00;23.80
48515;DHT22;34309;47.260;2.796;2023-02-04T16:00:44;20.90;23.80
48515;DHT22;34309;47.260;2.796;2023-02-04T16:03:18;20.90;23.70
48515;DHT22;34309;47.260;2.796;2023-02-04T16:05:56;20.90;23.60
48515;DHT22;34309;47.260;2.796;2023-02-04T16:08:30;20.90;23.60
48515;DHT22;34309;47.260;2.796;2023-02-04T16:11:04;20.90;23.40
48515;DHT22;34309;47.260;2.796;2023-02-04T16:13:37;20.90;23.50
48515;DHT22;34309;47.260;2.796;2023-02-04T16:16:11;20.90;23.50